sensor_id;sensor_type;location;lat;lon;timestamp;P1;durP1;ratioP1;P2;durP2;ratioP2
54881;SDS011;40775;51.448;4.742;2022-08-03T00:01:34;1.55;;;0.68;;
54881;SDS011;40775;51.448;4.742;2022-08-03T00:04:02;1.67;;;0.60;;
54881;SDS011;40775;51.448;4.742;2022-08-03T00:06:33;1.40;;;0.60;;
54881;SDS011;40775;51.448;4.742;2022-08-03T00:09:05;1.58;;;0.65;;
54881;SDS011;40775;51.448;4.742;2022-08-03T00:11:33;2.78;;;0.93;;
54881;SDS011;40775;51.448;4.742;2022-08-03T00:14:02;1.73;;;0.70;;
54881;SDS011;40775;51.448;4.742;2022-08-03T00:16:31;3.08;;;0.82;;
54881;SDS011;40775;51.448;4.742;2022-08-03T00:18:59;1.83;;;0.63;;
54881;SDS011;40775;51.448;4.742;2022-08-03T00:21:28;3.70;;;0.73;;
54881;SDS011;40775;51.448;4.742;2022-08-03T00:23:55;1.25;;;0.68;;
54881;SDS011;40775;51.448;4.742;2022-08-03T00:26:23;1.23;;;0.70;;
54881;SDS011;40775;51.448;4.742;2022-08-03T00:28:50;2.00;;;0.60;;
54881;SDS011;40775;51.448;4.742;2022-08-03T00:31:18;2.65;;;0.88;;
54881;SDS011;40775;51.448;4.742;2022-08-03T00:34:05;2.60;;;0.85;;
54881;SDS011;40775;51.448;4.742;2022-08-03T00:36:33;1.67;;;0.90;;
54881;SDS011;40775;51.448;4.742;2022-08-03T00:39:01;1.45;;;0.77;;
54881;SDS011;40775;51.448;4.742;2022-08-03T00:41:28;1.60;;;0.73;;
54881;SDS011;40775;51.448;4.742;2022-08-03T00:43:55;3.13;;;0.90;;
54881;SDS011;40775;51.448;4.742;2022-08-03T00:46:23;2.57;;;0.90;;
54881;SDS011;40775;51.448;4.742;2022-08-03T00:48:50;0.98;;;0.60;;
54881;SDS011;40775;51.448;4.742;2022-08-03T00:51:21;1.55;;;0.80;;
54881;SDS011;40775;51.448;4.742;2022-08-03T00:53:49;1.70;;;0.70;;
54881;SDS011;40775;51.448;4.742;2022-08-03T00:56:17;3.05;;;0.65;;
54881;SDS011;40775;51.448;4.742;2022-08-03T00:58:44;2.70;;;1.00;;
54881;SDS011;40775;51.448;4.742;2022-08-03T01:01:12;2.00;;;0.80;;
54881;SDS011;40775;51.448;4.742;2022-08-03T01:03:40;2.33;;;1.10;;
54881;SDS011;40775;51.448;4.742;2022-08-03T01:08:56;1.58;;;0.90;;
54881;SDS011;40775;51.448;4.742;2022-08-03T01:14:43;1.77;;;0.70;;
54881;SDS011;40775;51.448;4.742;2022-08-03T01:17:31;1.93;;;0.80;;
54881;SDS011;40775;51.448;4.742;2022-08-03T01:20:14;1.60;;;0.80;;
54881;SDS011;40775;51.448;4.742;2022-08-03T01:23:02;2.43;;;0.83;;
54881;SDS011;40775;51.448;4.742;2022-08-03T01:31:43;2.30;;;0.82;;
54881;SDS011;40775;51.448;4.742;2022-08-03T01:35:15;2.65;;;0.80;;
54881;SDS011;40775;51.448;4.742;2022-08-03T01:37:51;2.00;;;0.80;;
54881;SDS011;40775;51.448;4.742;2022-08-03T01:40:26;1.88;;;0.80;;
54881;SDS011;40775;51.448;4.742;2022-08-03T01:42:56;2.97;;;0.75;;
54881;SDS011;40775;51.448;4.742;2022-08-03T01:45:25;1.83;;;0.77;;
54881;SDS011;40775;51.448;4.742;2022-08-03T01:47:59;3.60;;;1.20;;
54881;SDS011;40775;51.448;4.742;2022-08-03T01:50:28;1.63;;;0.80;;
54881;SDS011;40775;51.448;4.742;2022-08-03T01:52:57;1.40;;;0.80;;
54881;SDS011;40775;51.448;4.742;2022-08-03T01:55:25;1.60;;;0.88;;
54881;SDS011;40775;51.448;4.742;2022-08-03T01:57:54;3.22;;;1.00;;
54881;SDS011;40775;51.448;4.742;2022-08-03T02:00:31;1.83;;;0.70;;
54881;SDS011;40775;51.448;4.742;2022-08-03T02:03:04;1.77;;;0.80;;
54881;SDS011;40775;51.448;4.742;2022-08-03T02:05:32;2.00;;;0.98;;
54881;SDS011;40775;51.448;4.742;2022-08-03T02:08:02;3.10;;;0.80;;
54881;SDS011;40775;51.448;4.742;2022-08-03T02:10:32;1.70;;;0.80;;
54881;SDS011;40775;51.448;4.742;2022-08-03T02:13:04;1.60;;;0.60;;
54881;SDS011;40775;51.448;4.742;2022-08-03T02:15:35;1.90;;;0.80;;
54881;SDS011;40775;51.448;4.742;2022-08-03T02:18:04;1.85;;;0.80;;
54881;SDS011;40775;51.448;4.742;2022-08-03T02:20:33;1.88;;;0.70;;
54881;SDS011;40775;51.448;4.742;2022-08-03T02:23:04;2.53;;;0.70;;
54881;SDS011;40775;51.448;4.742;2022-08-03T02:25:33;2.47;;;0.80;;
54881;SDS011;40775;51.448;4.742;2022-08-03T02:28:10;0.70;;;0.50;;
54881;SDS011;40775;51.448;4.742;2022-08-03T02:30:43;2.63;;;0.90;;
54881;SDS011;40775;51.448;4.742;2022-08-03T02:33:20;1.25;;;0.75;;
54881;SDS011;40775;51.448;4.742;2022-08-03T02:35:51;2.40;;;0.70;;
54881;SDS011;40775;51.448;4.742;2022-08-03T02:38:20;2.65;;;0.95;;
54881;SDS011;40775;51.448;4.742;2022-08-03T02:40:54;1.85;;;0.70;;
54881;SDS011;40775;51.448;4.742;2022-08-03T02:43:22;1.60;;;0.85;;
54881;SDS011;40775;51.448;4.742;2022-08-03T02:45:51;4.13;;;0.90;;
54881;SDS011;40775;51.448;4.742;2022-08-03T02:48:20;1.83;;;0.95;;
54881;SDS011;40775;51.448;4.742;2022-08-03T02:50:52;1.52;;;0.65;;
54881;SDS011;40775;51.448;4.742;2022-08-03T02:53:24;2.40;;;0.73;;
54881;SDS011;40775;51.448;4.742;2022-08-03T02:55:54;2.28;;;0.70;;
54881;SDS011;40775;51.448;4.742;2022-08-03T02:58:22;2.47;;;0.80;;
54881;SDS011;40775;51.448;4.742;2022-08-03T03:00:51;1.80;;;0.75;;
54881;SDS011;40775;51.448;4.742;2022-08-03T03:03:19;1.60;;;0.75;;
54881;SDS011;40775;51.448;4.742;2022-08-03T03:05:48;2.20;;;0.90;;
54881;SDS011;40775;51.448;4.742;2022-08-03T03:08:22;2.47;;;0.85;;
54881;SDS011;40775;51.448;4.742;2022-08-03T03:10:58;1.35;;;0.60;;
54881;SDS011;40775;51.448;4.742;2022-08-03T03:13:30;3.00;;;0.88;;
54881;SDS011;40775;51.448;4.742;2022-08-03T03:15:59;1.02;;;0.52;;
54881;SDS011;40775;51.448;4.742;2022-08-03T03:18:30;1.67;;;0.88;;
54881;SDS011;40775;51.448;4.742;2022-08-03T03:20:59;2.20;;;0.90;;
54881;SDS011;40775;51.448;4.742;2022-08-03T03:23:28;1.85;;;0.70;;
54881;SDS011;40775;51.448;4.742;2022-08-03T03:25:59;1.48;;;0.63;;
54881;SDS011;40775;51.448;4.742;2022-08-03T03:28:27;2.50;;;0.50;;
54881;SDS011;40775;51.448;4.742;2022-08-03T03:30:56;2.78;;;0.65;;
54881;SDS011;40775;51.448;4.742;2022-08-03T03:33:24;3.90;;;0.80;;
54881;SDS011;40775;51.448;4.742;2022-08-03T03:35:53;1.85;;;0.60;;
54881;SDS011;40775;51.448;4.742;2022-08-03T03:38:22;1.70;;;0.80;;
54881;SDS011;40775;51.448;4.742;2022-08-03T03:40:50;1.35;;;0.55;;
54881;SDS011;40775;51.448;4.742;2022-08-03T03:43:17;2.03;;;0.80;;
54881;SDS011;40775;51.448;4.742;2022-08-03T03:45:45;3.20;;;0.77;;
54881;SDS011;40775;51.448;4.742;2022-08-03T03:48:16;1.50;;;0.70;;
54881;SDS011;40775;51.448;4.742;2022-08-03T03:50:48;0.88;;;0.47;;
54881;SDS011;40775;51.448;4.742;2022-08-03T03:53:16;1.00;;;0.50;;
54881;SDS011;40775;51.448;4.742;2022-08-03T03:55:44;2.23;;;1.00;;
54881;SDS011;40775;51.448;4.742;2022-08-03T03:58:28;1.33;;;0.50;;
54881;SDS011;40775;51.448;4.742;2022-08-03T04:00:56;1.10;;;0.50;;
54881;SDS011;40775;51.448;4.742;2022-08-03T04:03:23;1.75;;;0.70;;
54881;SDS011;40775;51.448;4.742;2022-08-03T04:05:51;3.00;;;0.50;;
54881;SDS011;40775;51.448;4.742;2022-08-03T04:08:37;2.83;;;0.88;;
54881;SDS011;40775;51.448;4.742;2022-08-03T04:14:05;1.40;;;0.80;;
54881;SDS011;40775;51.448;4.742;2022-08-03T04:16:51;1.67;;;0.73;;
54881;SDS011;40775;51.448;4.742;2022-08-03T04:22:04;1.73;;;0.73;;
54881;SDS011;40775;51.448;4.742;2022-08-03T04:24:42;2.03;;;0.55;;
54881;SDS011;40775;51.448;4.742;2022-08-03T04:27:15;3.78;;;0.85;;
54881;SDS011;40775;51.448;4.742;2022-08-03T04:29:47;1.85;;;0.80;;
54881;SDS011;40775;51.448;4.742;2022-08-03T04:32:16;1.17;;;0.57;;
54881;SDS011;40775;51.448;4.742;2022-08-03T04:34:46;2.13;;;0.73;;
54881;SDS011;40775;51.448;4.742;2022-08-03T04:37:14;1.90;;;0.70;;
54881;SDS011;40775;51.448;4.742;2022-08-03T04:40:02;2.92;;;0.80;;
54881;SDS011;40775;51.448;4.742;2022-08-03T04:42:34;3.67;;;1.02;;
54881;SDS011;40775;51.448;4.742;2022-08-03T04:45:04;1.80;;;0.70;;
54881;SDS011;40775;51.448;4.742;2022-08-03T04:47:36;2.92;;;0.60;;
54881;SDS011;40775;51.448;4.742;2022-08-03T04:50:04;1.65;;;0.70;;
54881;SDS011;40775;51.448;4.742;2022-08-03T04:52:38;1.45;;;0.68;;
54881;SDS011;40775;51.448;4.742;2022-08-03T04:55:06;1.70;;;0.50;;
54881;SDS011;40775;51.448;4.742;2022-08-03T04:57:35;4.70;;;0.80;;
54881;SDS011;40775;51.448;4.742;2022-08-03T05:00:03;1.75;;;0.47;;
54881;SDS011;40775;51.448;4.742;2022-08-03T05:02:31;2.08;;;1.00;;
54881;SDS011;40775;51.448;4.742;2022-08-03T05:05:00;1.15;;;0.68;;
54881;SDS011;40775;51.448;4.742;2022-08-03T05:07:27;2.05;;;0.73;;
54881;SDS011;40775;51.448;4.742;2022-08-03T05:10:03;2.30;;;0.70;;
54881;SDS011;40775;51.448;4.742;2022-08-03T05:12:41;2.00;;;0.55;;
54881;SDS011;40775;51.448;4.742;2022-08-03T05:15:10;1.50;;;0.70;;
54881;SDS011;40775;51.448;4.742;2022-08-03T05:17:38;2.13;;;0.80;;
54881;SDS011;40775;51.448;4.742;2022-08-03T05:20:05;1.05;;;0.40;;
54881;SDS011;40775;51.448;4.742;2022-08-03T05:22:33;2.25;;;0.85;;
54881;SDS011;40775;51.448;4.742;2022-08-03T05:25:01;1.50;;;0.70;;
54881;SDS011;40775;51.448;4.742;2022-08-03T05:27:28;1.55;;;0.60;;
54881;SDS011;40775;51.448;4.742;2022-08-03T05:29:56;3.08;;;0.80;;
54881;SDS011;40775;51.448;4.742;2022-08-03T05:32:44;4.00;;;0.98;;
54881;SDS011;40775;51.448;4.742;2022-08-03T05:35:11;3.03;;;1.20;;
54881;SDS011;40775;51.448;4.742;2022-08-03T05:37:59;2.10;;;0.70;;
54881;SDS011;40775;51.448;4.742;2022-08-03T05:40:28;2.27;;;1.03;;
54881;SDS011;40775;51.448;4.742;2022-08-03T05:42:56;2.20;;;0.60;;
54881;SDS011;40775;51.448;4.742;2022-08-03T05:45:24;5.65;;;1.00;;
54881;SDS011;40775;51.448;4.742;2022-08-03T05:47:54;2.40;;;1.00;;
54881;SDS011;40775;51.448;4.742;2022-08-03T05:50:22;1.77;;;0.77;;
54881;SDS011;40775;51.448;4.742;2022-08-03T05:52:49;2.80;;;0.80;;
54881;SDS011;40775;51.448;4.742;2022-08-03T05:55:20;1.08;;;0.57;;
54881;SDS011;40775;51.448;4.742;2022-08-03T05:57:47;2.75;;;0.75;;
54881;SDS011;40775;51.448;4.742;2022-08-03T06:00:15;1.58;;;0.73;;
54881;SDS011;40775;51.448;4.742;2022-08-03T06:02:44;2.92;;;0.63;;
54881;SDS011;40775;51.448;4.742;2022-08-03T06:05:11;2.45;;;0.77;;
54881;SDS011;40775;51.448;4.742;2022-08-03T06:07:39;2.07;;;0.80;;
54881;SDS011;40775;51.448;4.742;2022-08-03T06:10:06;2.72;;;0.80;;
54881;SDS011;40775;51.448;4.742;2022-08-03T06:12:54;1.20;;;0.63;;
54881;SDS011;40775;51.448;4.742;2022-08-03T06:15:21;1.45;;;0.60;;
54881;SDS011;40775;51.448;4.742;2022-08-03T06:17:50;1.58;;;0.80;;
54881;SDS011;40775;51.448;4.742;2022-08-03T06:20:18;2.70;;;0.80;;
54881;SDS011;40775;51.448;4.742;2022-08-03T06:22:52;2.38;;;0.70;;
54881;SDS011;40775;51.448;4.742;2022-08-03T06:25:26;1.50;;;0.80;;
54881;SDS011;40775;51.448;4.742;2022-08-03T06:27:54;1.40;;;0.70;;
54881;SDS011;40775;51.448;4.742;2022-08-03T06:30:21;1.70;;;0.70;;
54881;SDS011;40775;51.448;4.742;2022-08-03T06:32:49;2.88;;;0.82;;
54881;SDS011;40775;51.448;4.742;2022-08-03T06:35:17;2.00;;;0.60;;
54881;SDS011;40775;51.448;4.742;2022-08-03T06:37:47;2.00;;;0.70;;
54881;SDS011;40775;51.448;4.742;2022-08-03T06:40:17;2.22;;;0.65;;
54881;SDS011;40775;51.448;4.742;2022-08-03T06:42:56;3.42;;;1.08;;
54881;SDS011;40775;51.448;4.742;2022-08-03T06:45:25;2.20;;;0.90;;
54881;SDS011;40775;51.448;4.742;2022-08-03T06:48:03;2.55;;;0.93;;
54881;SDS011;40775;51.448;4.742;2022-08-03T06:50:34;1.92;;;0.68;;
54881;SDS011;40775;51.448;4.742;2022-08-03T06:53:03;1.50;;;0.65;;
54881;SDS011;40775;51.448;4.742;2022-08-03T06:55:31;4.28;;;1.20;;
54881;SDS011;40775;51.448;4.742;2022-08-03T06:58:06;5.25;;;1.65;;
54881;SDS011;40775;51.448;4.742;2022-08-03T07:00:34;4.20;;;1.55;;
54881;SDS011;40775;51.448;4.742;2022-08-03T07:03:01;3.58;;;1.08;;
54881;SDS011;40775;51.448;4.742;2022-08-03T07:05:29;1.80;;;0.60;;
54881;SDS011;40775;51.448;4.742;2022-08-03T07:07:58;2.20;;;0.88;;
54881;SDS011;40775;51.448;4.742;2022-08-03T07:10:27;2.20;;;0.80;;
54881;SDS011;40775;51.448;4.742;2022-08-03T07:12:54;2.03;;;0.73;;
54881;SDS011;40775;51.448;4.742;2022-08-03T07:15:22;1.80;;;0.68;;
54881;SDS011;40775;51.448;4.742;2022-08-03T07:18:10;5.18;;;1.50;;
54881;SDS011;40775;51.448;4.742;2022-08-03T07:20:38;6.00;;;1.55;;
54881;SDS011;40775;51.448;4.742;2022-08-03T07:23:06;8.45;;;2.10;;
54881;SDS011;40775;51.448;4.742;2022-08-03T07:25:33;4.65;;;1.30;;
54881;SDS011;40775;51.448;4.742;2022-08-03T07:28:01;3.60;;;1.00;;
54881;SDS011;40775;51.448;4.742;2022-08-03T07:30:28;5.70;;;1.27;;
54881;SDS011;40775;51.448;4.742;2022-08-03T07:32:56;5.18;;;1.50;;
54881;SDS011;40775;51.448;4.742;2022-08-03T07:35:23;1.83;;;0.70;;
54881;SDS011;40775;51.448;4.742;2022-08-03T07:37:52;1.58;;;0.60;;
54881;SDS011;40775;51.448;4.742;2022-08-03T07:40:20;2.28;;;0.80;;
54881;SDS011;40775;51.448;4.742;2022-08-03T07:42:51;4.55;;;1.00;;
54881;SDS011;40775;51.448;4.742;2022-08-03T07:45:18;5.20;;;1.47;;
54881;SDS011;40775;51.448;4.742;2022-08-03T07:47:49;3.28;;;1.20;;
54881;SDS011;40775;51.448;4.742;2022-08-03T07:50:19;5.07;;;1.52;;
54881;SDS011;40775;51.448;4.742;2022-08-03T07:52:47;5.10;;;1.88;;
54881;SDS011;40775;51.448;4.742;2022-08-03T07:55:17;3.47;;;1.38;;
54881;SDS011;40775;51.448;4.742;2022-08-03T07:57:46;2.70;;;1.00;;
54881;SDS011;40775;51.448;4.742;2022-08-03T08:00:24;1.40;;;0.70;;
54881;SDS011;40775;51.448;4.742;2022-08-03T08:02:51;1.80;;;0.60;;
54881;SDS011;40775;51.448;4.742;2022-08-03T08:05:18;3.00;;;0.65;;
54881;SDS011;40775;51.448;4.742;2022-08-03T08:07:46;1.75;;;0.60;;
54881;SDS011;40775;51.448;4.742;2022-08-03T08:10:16;3.22;;;0.88;;
54881;SDS011;40775;51.448;4.742;2022-08-03T08:12:44;2.78;;;1.08;;
54881;SDS011;40775;51.448;4.742;2022-08-03T08:15:12;3.47;;;0.93;;
54881;SDS011;40775;51.448;4.742;2022-08-03T08:17:46;3.57;;;0.97;;
54881;SDS011;40775;51.448;4.742;2022-08-03T08:20:26;4.07;;;1.00;;
54881;SDS011;40775;51.448;4.742;2022-08-03T08:23:03;2.97;;;1.00;;
54881;SDS011;40775;51.448;4.742;2022-08-03T08:25:53;4.18;;;1.05;;
54881;SDS011;40775;51.448;4.742;2022-08-03T08:28:21;2.22;;;0.88;;
54881;SDS011;40775;51.448;4.742;2022-08-03T08:30:58;3.72;;;1.00;;
54881;SDS011;40775;51.448;4.742;2022-08-03T08:33:26;2.17;;;0.70;;
54881;SDS011;40775;51.448;4.742;2022-08-03T08:36:13;4.75;;;1.15;;
54881;SDS011;40775;51.448;4.742;2022-08-03T08:38:41;4.07;;;1.17;;
54881;SDS011;40775;51.448;4.742;2022-08-03T08:41:10;5.93;;;1.75;;
54881;SDS011;40775;51.448;4.742;2022-08-03T08:43:39;6.13;;;1.70;;
54881;SDS011;40775;51.448;4.742;2022-08-03T08:46:07;2.17;;;0.80;;
54881;SDS011;40775;51.448;4.742;2022-08-03T08:48:48;5.57;;;1.30;;
54881;SDS011;40775;51.448;4.742;2022-08-03T08:51:18;5.35;;;1.20;;
54881;SDS011;40775;51.448;4.742;2022-08-03T08:53:48;2.60;;;0.73;;
54881;SDS011;40775;51.448;4.742;2022-08-03T08:56:18;1.67;;;0.50;;
54881;SDS011;40775;51.448;4.742;2022-08-03T08:58:50;2.47;;;0.75;;
54881;SDS011;40775;51.448;4.742;2022-08-03T09:01:23;3.13;;;0.70;;
54881;SDS011;40775;51.448;4.742;2022-08-03T09:03:51;2.10;;;0.70;;
54881;SDS011;40775;51.448;4.742;2022-08-03T09:06:20;2.97;;;0.98;;
54881;SDS011;40775;51.448;4.742;2022-08-03T09:08:48;4.27;;;0.93;;
54881;SDS011;40775;51.448;4.742;2022-08-03T09:11:19;1.88;;;0.70;;
54881;SDS011;40775;51.448;4.742;2022-08-03T09:14:09;1.42;;;0.60;;
54881;SDS011;40775;51.448;4.742;2022-08-03T09:16:57;3.53;;;0.85;;
54881;SDS011;40775;51.448;4.742;2022-08-03T09:19:28;1.92;;;0.90;;
54881;SDS011;40775;51.448;4.742;2022-08-03T09:22:13;1.48;;;0.75;;
54881;SDS011;40775;51.448;4.742;2022-08-03T09:27:49;3.88;;;1.30;;
54881;SDS011;40775;51.448;4.742;2022-08-03T09:30:17;4.60;;;1.10;;
54881;SDS011;40775;51.448;4.742;2022-08-03T09:33:04;2.80;;;0.70;;
54881;SDS011;40775;51.448;4.742;2022-08-03T09:35:43;1.50;;;0.65;;
54881;SDS011;40775;51.448;4.742;2022-08-03T09:38:23;4.03;;;1.13;;
54881;SDS011;40775;51.448;4.742;2022-08-03T09:40:54;5.38;;;1.23;;
54881;SDS011;40775;51.448;4.742;2022-08-03T09:43:25;5.53;;;1.30;;
54881;SDS011;40775;51.448;4.742;2022-08-03T09:46:03;5.55;;;1.40;;
54881;SDS011;40775;51.448;4.742;2022-08-03T09:48:32;6.53;;;1.42;;
54881;SDS011;40775;51.448;4.742;2022-08-03T09:51:02;5.13;;;1.35;;
54881;SDS011;40775;51.448;4.742;2022-08-03T09:53:41;4.00;;;0.90;;
54881;SDS011;40775;51.448;4.742;2022-08-03T09:56:36;6.75;;;1.17;;
54881;SDS011;40775;51.448;4.742;2022-08-03T09:59:04;8.90;;;1.70;;
54881;SDS011;40775;51.448;4.742;2022-08-03T10:01:32;3.25;;;1.17;;
54881;SDS011;40775;51.448;4.742;2022-08-03T10:04:00;6.60;;;1.70;;
54881;SDS011;40775;51.448;4.742;2022-08-03T10:06:30;6.25;;;1.48;;
54881;SDS011;40775;51.448;4.742;2022-08-03T10:11:36;4.47;;;1.30;;
54881;SDS011;40775;51.448;4.742;2022-08-03T10:14:08;6.82;;;1.60;;
54881;SDS011;40775;51.448;4.742;2022-08-03T10:16:44;6.28;;;1.38;;
54881;SDS011;40775;51.448;4.742;2022-08-03T10:19:13;5.38;;;1.50;;
54881;SDS011;40775;51.448;4.742;2022-08-03T10:21:42;2.97;;;1.17;;
54881;SDS011;40775;51.448;4.742;2022-08-03T10:24:19;6.38;;;1.70;;
54881;SDS011;40775;51.448;4.742;2022-08-03T10:26:52;6.32;;;1.55;;
54881;SDS011;40775;51.448;4.742;2022-08-03T10:29:28;6.90;;;1.95;;
54881;SDS011;40775;51.448;4.742;2022-08-03T10:32:02;3.63;;;1.05;;
54881;SDS011;40775;51.448;4.742;2022-08-03T10:34:36;4.35;;;1.00;;
54881;SDS011;40775;51.448;4.742;2022-08-03T10:37:10;4.00;;;1.15;;
54881;SDS011;40775;51.448;4.742;2022-08-03T10:39:39;5.57;;;1.27;;
54881;SDS011;40775;51.448;4.742;2022-08-03T10:42:24;1.55;;;0.65;;
54881;SDS011;40775;51.448;4.742;2022-08-03T10:45:02;3.22;;;0.90;;
54881;SDS011;40775;51.448;4.742;2022-08-03T10:47:32;3.37;;;0.90;;
54881;SDS011;40775;51.448;4.742;2022-08-03T10:50:00;5.55;;;1.25;;
54881;SDS011;40775;51.448;4.742;2022-08-03T10:52:28;8.00;;;1.87;;
54881;SDS011;40775;51.448;4.742;2022-08-03T10:55:10;5.82;;;1.90;;
54881;SDS011;40775;51.448;4.742;2022-08-03T10:58:39;3.60;;;1.25;;
54881;SDS011;40775;51.448;4.742;2022-08-03T11:01:19;4.78;;;1.33;;
54881;SDS011;40775;51.448;4.742;2022-08-03T11:04:26;4.10;;;1.30;;
54881;SDS011;40775;51.448;4.742;2022-08-03T11:09:42;2.00;;;0.80;;
54881;SDS011;40775;51.448;4.742;2022-08-03T11:12:23;2.55;;;0.47;;
54881;SDS011;40775;51.448;4.742;2022-08-03T11:14:57;2.77;;;0.87;;
54881;SDS011;40775;51.448;4.742;2022-08-03T11:17:34;1.85;;;0.63;;
54881;SDS011;40775;51.448;4.742;2022-08-03T11:26:31;2.65;;;0.98;;
54881;SDS011;40775;51.448;4.742;2022-08-03T11:31:55;3.63;;;0.90;;
54881;SDS011;40775;51.448;4.742;2022-08-03T11:34:23;8.15;;;1.55;;
54881;SDS011;40775;51.448;4.742;2022-08-03T11:39:49;6.63;;;1.40;;
54881;SDS011;40775;51.448;4.742;2022-08-03T11:44:50;4.72;;;0.85;;
54881;SDS011;40775;51.448;4.742;2022-08-03T11:47:23;4.88;;;1.48;;
54881;SDS011;40775;51.448;4.742;2022-08-03T11:49:56;2.85;;;1.08;;
54881;SDS011;40775;51.448;4.742;2022-08-03T11:52:26;3.80;;;1.27;;
54881;SDS011;40775;51.448;4.742;2022-08-03T11:55:00;5.30;;;1.20;;
54881;SDS011;40775;51.448;4.742;2022-08-03T11:57:34;3.28;;;1.02;;
54881;SDS011;40775;51.448;4.742;2022-08-03T12:00:22;2.45;;;1.00;;
54881;SDS011;40775;51.448;4.742;2022-08-03T12:03:11;3.55;;;0.80;;
54881;SDS011;40775;51.448;4.742;2022-08-03T12:05:44;2.65;;;1.00;;
54881;SDS011;40775;51.448;4.742;2022-08-03T12:10:56;5.03;;;0.95;;
54881;SDS011;40775;51.448;4.742;2022-08-03T12:13:25;3.57;;;1.20;;
54881;SDS011;40775;51.448;4.742;2022-08-03T12:16:22;4.97;;;1.17;;
54881;SDS011;40775;51.448;4.742;2022-08-03T12:19:01;4.03;;;1.00;;
54881;SDS011;40775;51.448;4.742;2022-08-03T12:21:34;4.30;;;1.10;;
54881;SDS011;40775;51.448;4.742;2022-08-03T12:24:22;5.00;;;1.00;;
54881;SDS011;40775;51.448;4.742;2022-08-03T12:26:53;3.15;;;1.08;;
54881;SDS011;40775;51.448;4.742;2022-08-03T12:29:25;3.72;;;1.10;;
54881;SDS011;40775;51.448;4.742;2022-08-03T12:31:53;2.88;;;1.10;;
54881;SDS011;40775;51.448;4.742;2022-08-03T12:34:21;2.58;;;0.93;;
54881;SDS011;40775;51.448;4.742;2022-08-03T12:36:49;4.50;;;1.35;;
54881;SDS011;40775;51.448;4.742;2022-08-03T12:39:21;5.55;;;1.23;;
54881;SDS011;40775;51.448;4.742;2022-08-03T12:41:52;4.43;;;1.20;;
54881;SDS011;40775;51.448;4.742;2022-08-03T12:44:30;4.13;;;1.20;;
54881;SDS011;40775;51.448;4.742;2022-08-03T12:47:00;1.67;;;0.80;;
54881;SDS011;40775;51.448;4.742;2022-08-03T12:49:28;2.17;;;0.90;;
54881;SDS011;40775;51.448;4.742;2022-08-03T12:52:11;2.28;;;1.02;;
54881;SDS011;40775;51.448;4.742;2022-08-03T12:54:39;2.95;;;0.93;;
54881;SDS011;40775;51.448;4.742;2022-08-03T12:57:07;1.63;;;0.50;;
54881;SDS011;40775;51.448;4.742;2022-08-03T12:59:42;2.77;;;0.90;;
54881;SDS011;40775;51.448;4.742;2022-08-03T13:02:23;1.90;;;0.88;;
54881;SDS011;40775;51.448;4.742;2022-08-03T13:04:52;2.20;;;0.60;;
54881;SDS011;40775;51.448;4.742;2022-08-03T13:07:20;2.20;;;0.90;;
54881;SDS011;40775;51.448;4.742;2022-08-03T13:09:49;2.35;;;0.82;;
54881;SDS011;40775;51.448;4.742;2022-08-03T13:12:19;2.83;;;1.00;;
54881;SDS011;40775;51.448;4.742;2022-08-03T13:14:54;5.45;;;1.10;;
54881;SDS011;40775;51.448;4.742;2022-08-03T13:17:23;3.80;;;1.17;;
54881;SDS011;40775;51.448;4.742;2022-08-03T13:19:51;2.87;;;1.00;;
54881;SDS011;40775;51.448;4.742;2022-08-03T13:22:25;4.55;;;1.17;;
54881;SDS011;40775;51.448;4.742;2022-08-03T13:24:56;3.83;;;0.90;;
54881;SDS011;40775;51.448;4.742;2022-08-03T13:27:24;2.40;;;1.00;;
54881;SDS011;40775;51.448;4.742;2022-08-03T13:30:12;3.53;;;0.98;;
54881;SDS011;40775;51.448;4.742;2022-08-03T13:32:55;1.40;;;0.60;;
54881;SDS011;40775;51.448;4.742;2022-08-03T13:35:24;1.90;;;0.65;;
54881;SDS011;40775;51.448;4.742;2022-08-03T13:37:51;1.88;;;0.82;;
54881;SDS011;40775;51.448;4.742;2022-08-03T13:40:18;5.10;;;1.30;;
54881;SDS011;40775;51.448;4.742;2022-08-03T13:42:55;2.47;;;1.17;;
54881;SDS011;40775;51.448;4.742;2022-08-03T13:45:23;2.38;;;0.90;;
54881;SDS011;40775;51.448;4.742;2022-08-03T13:47:50;1.98;;;0.70;;
54881;SDS011;40775;51.448;4.742;2022-08-03T13:50:17;1.48;;;0.63;;
54881;SDS011;40775;51.448;4.742;2022-08-03T13:52:45;2.92;;;0.88;;
54881;SDS011;40775;51.448;4.742;2022-08-03T13:55:13;1.95;;;0.98;;
54881;SDS011;40775;51.448;4.742;2022-08-03T13:57:40;3.67;;;0.98;;
54881;SDS011;40775;51.448;4.742;2022-08-03T14:00:28;1.85;;;0.88;;
54881;SDS011;40775;51.448;4.742;2022-08-03T14:02:56;2.63;;;0.93;;
54881;SDS011;40775;51.448;4.742;2022-08-03T14:05:34;2.13;;;0.65;;
54881;SDS011;40775;51.448;4.742;2022-08-03T14:08:04;2.03;;;0.73;;
54881;SDS011;40775;51.448;4.742;2022-08-03T14:10:33;2.30;;;1.00;;
54881;SDS011;40775;51.448;4.742;2022-08-03T14:13:02;3.33;;;1.10;;
54881;SDS011;40775;51.448;4.742;2022-08-03T14:15:30;4.80;;;1.00;;
54881;SDS011;40775;51.448;4.742;2022-08-03T14:18:03;4.30;;;1.10;;
54881;SDS011;40775;51.448;4.742;2022-08-03T14:20:53;3.28;;;1.08;;
54881;SDS011;40775;51.448;4.742;2022-08-03T14:23:21;3.08;;;0.77;;
54881;SDS011;40775;51.448;4.742;2022-08-03T14:25:49;2.90;;;0.93;;
54881;SDS011;40775;51.448;4.742;2022-08-03T14:28:19;1.27;;;0.73;;
54881;SDS011;40775;51.448;4.742;2022-08-03T14:30:53;3.95;;;1.00;;
54881;SDS011;40775;51.448;4.742;2022-08-03T14:33:22;2.30;;;0.70;;
54881;SDS011;40775;51.448;4.742;2022-08-03T14:35:49;2.03;;;0.68;;
54881;SDS011;40775;51.448;4.742;2022-08-03T14:38:17;2.20;;;0.98;;
54881;SDS011;40775;51.448;4.742;2022-08-03T14:40:45;3.33;;;0.95;;
54881;SDS011;40775;51.448;4.742;2022-08-03T14:43:14;2.33;;;0.80;;
54881;SDS011;40775;51.448;4.742;2022-08-03T14:45:47;2.33;;;0.43;;
54881;SDS011;40775;51.448;4.742;2022-08-03T14:48:21;1.13;;;0.60;;
54881;SDS011;40775;51.448;4.742;2022-08-03T14:51:10;3.88;;;1.10;;
54881;SDS011;40775;51.448;4.742;2022-08-03T14:53:37;2.38;;;0.73;;
54881;SDS011;40775;51.448;4.742;2022-08-03T14:56:05;0.90;;;0.50;;
54881;SDS011;40775;51.448;4.742;2022-08-03T14:58:35;1.02;;;0.50;;
54881;SDS011;40775;51.448;4.742;2022-08-03T15:01:03;2.17;;;0.50;;
54881;SDS011;40775;51.448;4.742;2022-08-03T15:03:52;1.37;;;0.50;;
54881;SDS011;40775;51.448;4.742;2022-08-03T15:06:20;0.88;;;0.35;;
54881;SDS011;40775;51.448;4.742;2022-08-03T15:08:47;0.73;;;0.40;;
54881;SDS011;40775;51.448;4.742;2022-08-03T15:11:35;0.93;;;0.40;;
54881;SDS011;40775;51.448;4.742;2022-08-03T15:14:02;0.50;;;0.30;;
54881;SDS011;40775;51.448;4.742;2022-08-03T15:16:34;1.30;;;0.50;;
54881;SDS011;40775;51.448;4.742;2022-08-03T15:19:02;1.33;;;0.40;;
54881;SDS011;40775;51.448;4.742;2022-08-03T15:21:50;1.58;;;0.47;;
54881;SDS011;40775;51.448;4.742;2022-08-03T15:24:18;0.77;;;0.40;;
54881;SDS011;40775;51.448;4.742;2022-08-03T15:26:45;1.35;;;0.50;;
54881;SDS011;40775;51.448;4.742;2022-08-03T15:29:13;1.17;;;0.43;;
54881;SDS011;40775;51.448;4.742;2022-08-03T15:32:00;0.40;;;0.30;;
54881;SDS011;40775;51.448;4.742;2022-08-03T15:34:34;0.75;;;0.40;;
54881;SDS011;40775;51.448;4.742;2022-08-03T15:37:01;0.82;;;0.40;;
54881;SDS011;40775;51.448;4.742;2022-08-03T15:39:41;1.43;;;0.50;;
54881;SDS011;40775;51.448;4.742;2022-08-03T15:42:29;0.30;;;0.20;;
54881;SDS011;40775;51.448;4.742;2022-08-03T15:44:58;1.85;;;0.40;;
54881;SDS011;40775;51.448;4.742;2022-08-03T15:47:25;1.53;;;0.50;;
54881;SDS011;40775;51.448;4.742;2022-08-03T15:49:53;1.05;;;0.40;;
54881;SDS011;40775;51.448;4.742;2022-08-03T15:52:22;1.23;;;0.38;;
54881;SDS011;40775;51.448;4.742;2022-08-03T15:54:49;0.90;;;0.40;;
54881;SDS011;40775;51.448;4.742;2022-08-03T15:57:17;1.52;;;0.52;;
54881;SDS011;40775;51.448;4.742;2022-08-03T15:59:46;1.70;;;0.50;;
54881;SDS011;40775;51.448;4.742;2022-08-03T16:02:14;0.50;;;0.30;;